Weather at Southern Illinois Airport

Public forecast

Using degrees Fahrenheit for public forecast. Weather courtesy of forecast.io.

Current aviation weather report (METAR) for Southern Illinois Airport

Retrieved 2022/01/28 19:52 UTC (15 minutes ago):

KMDH 281952Z 33014G27KT 9SM FEW025 OVC034 M02/M08 A3029 RMK AO2 PK WND 34029/1853 SNB36E47 SLP261 P0000 T10221083

Closest aviation forecast (TAF) to Southern Illinois Airport

Closest forecast is Cape Girardeau Regional Airport, 36.5 nm (67.6 km) SSW. Retrieved 2022/01/28 18:24 UTC (2 hours ago):

TAF KCGI 281721Z 2818/2918 33013G23KT P6SM -SN OVC035 FM282100 33012G20KT P6SM SCT025 FM290000 34007KT P6SM SKC